sensor_id;sensor_type;location;lat;lon;timestamp;P1;durP1;ratioP1;P2;durP2;ratioP2
1725;SDS011;41776;48.260;8.928;2024-02-28T00:02:08;38.03;;;17.03;;
1725;SDS011;41776;48.260;8.928;2024-02-28T00:04:35;38.53;;;17.73;;
1725;SDS011;41776;48.260;8.928;2024-02-28T00:07:01;32.77;;;15.97;;
1725;SDS011;41776;48.260;8.928;2024-02-28T00:09:28;33.73;;;15.67;;
1725;SDS011;41776;48.260;8.928;2024-02-28T00:11:54;31.43;;;15.60;;
1725;SDS011;41776;48.260;8.928;2024-02-28T00:14:21;34.90;;;16.23;;
1725;SDS011;41776;48.260;8.928;2024-02-28T00:16:48;36.10;;;16.50;;
1725;SDS011;41776;48.260;8.928;2024-02-28T00:19:15;34.53;;;15.57;;
1725;SDS011;41776;48.260;8.928;2024-02-28T00:21:43;35.57;;;15.77;;
1725;SDS011;41776;48.260;8.928;2024-02-28T00:24:09;31.60;;;15.10;;
1725;SDS011;41776;48.260;8.928;2024-02-28T00:26:37;38.23;;;16.03;;
1725;SDS011;41776;48.260;8.928;2024-02-28T00:29:06;34.27;;;15.00;;
1725;SDS011;41776;48.260;8.928;2024-02-28T00:31:32;32.47;;;14.83;;
1725;SDS011;41776;48.260;8.928;2024-02-28T00:34:00;30.33;;;14.03;;
1725;SDS011;41776;48.260;8.928;2024-02-28T00:36:27;27.57;;;13.57;;
1725;SDS011;41776;48.260;8.928;2024-02-28T00:38:53;29.77;;;12.17;;
1725;SDS011;41776;48.260;8.928;2024-02-28T00:41:20;29.17;;;13.83;;
1725;SDS011;41776;48.260;8.928;2024-02-28T00:43:46;30.27;;;14.27;;
1725;SDS011;41776;48.260;8.928;2024-02-28T00:46:13;35.10;;;15.17;;
1725;SDS011;41776;48.260;8.928;2024-02-28T00:48:39;34.50;;;16.13;;
1725;SDS011;41776;48.260;8.928;2024-02-28T00:51:07;32.17;;;15.47;;
1725;SDS011;41776;48.260;8.928;2024-02-28T00:53:33;34.37;;;16.40;;
1725;SDS011;41776;48.260;8.928;2024-02-28T00:56:00;38.10;;;16.57;;
1725;SDS011;41776;48.260;8.928;2024-02-28T00:58:26;30.53;;;13.90;;
1725;SDS011;41776;48.260;8.928;2024-02-28T01:00:54;33.10;;;14.80;;
1725;SDS011;41776;48.260;8.928;2024-02-28T01:03:21;34.87;;;15.27;;
1725;SDS011;41776;48.260;8.928;2024-02-28T01:05:48;32.00;;;14.17;;
1725;SDS011;41776;48.260;8.928;2024-02-28T01:08:16;31.87;;;13.97;;
1725;SDS011;41776;48.260;8.928;2024-02-28T01:10:43;30.97;;;14.60;;
1725;SDS011;41776;48.260;8.928;2024-02-28T01:13:09;31.37;;;14.93;;
1725;SDS011;41776;48.260;8.928;2024-02-28T01:15:36;33.70;;;14.60;;
1725;SDS011;41776;48.260;8.928;2024-02-28T01:18:02;33.77;;;16.53;;
1725;SDS011;41776;48.260;8.928;2024-02-28T01:20:29;36.33;;;16.67;;
1725;SDS011;41776;48.260;8.928;2024-02-28T01:22:55;32.77;;;15.40;;
1725;SDS011;41776;48.260;8.928;2024-02-28T01:25:23;35.33;;;16.17;;
1725;SDS011;41776;48.260;8.928;2024-02-28T01:27:49;32.07;;;15.87;;
1725;SDS011;41776;48.260;8.928;2024-02-28T01:30:16;30.83;;;14.97;;
1725;SDS011;41776;48.260;8.928;2024-02-28T01:32:43;35.03;;;15.60;;
1725;SDS011;41776;48.260;8.928;2024-02-28T01:35:10;32.47;;;14.93;;
1725;SDS011;41776;48.260;8.928;2024-02-28T01:37:36;32.63;;;14.97;;
1725;SDS011;41776;48.260;8.928;2024-02-28T01:40:03;30.83;;;14.47;;
1725;SDS011;41776;48.260;8.928;2024-02-28T01:42:31;34.43;;;16.53;;
1725;SDS011;41776;48.260;8.928;2024-02-28T01:44:58;30.93;;;14.97;;
1725;SDS011;41776;48.260;8.928;2024-02-28T01:47:24;27.03;;;13.00;;
1725;SDS011;41776;48.260;8.928;2024-02-28T01:49:51;33.57;;;15.13;;
1725;SDS011;41776;48.260;8.928;2024-02-28T01:52:19;25.63;;;13.03;;
1725;SDS011;41776;48.260;8.928;2024-02-28T01:54:46;27.00;;;12.07;;
1725;SDS011;41776;48.260;8.928;2024-02-28T01:57:13;32.30;;;14.17;;
1725;SDS011;41776;48.260;8.928;2024-02-28T01:59:41;31.23;;;14.57;;
1725;SDS011;41776;48.260;8.928;2024-02-28T02:02:08;33.23;;;14.27;;
1725;SDS011;41776;48.260;8.928;2024-02-28T02:04:34;28.30;;;13.17;;
1725;SDS011;41776;48.260;8.928;2024-02-28T02:07:01;30.57;;;13.43;;
1725;SDS011;41776;48.260;8.928;2024-02-28T02:09:27;25.00;;;12.37;;
1725;SDS011;41776;48.260;8.928;2024-02-28T02:11:54;26.33;;;12.87;;
1725;SDS011;41776;48.260;8.928;2024-02-28T02:14:20;25.77;;;12.83;;
1725;SDS011;41776;48.260;8.928;2024-02-28T02:16:48;21.33;;;11.20;;
1725;SDS011;41776;48.260;8.928;2024-02-28T02:19:14;27.60;;;12.43;;
1725;SDS011;41776;48.260;8.928;2024-02-28T02:21:43;28.70;;;12.80;;
1725;SDS011;41776;48.260;8.928;2024-02-28T02:24:16;26.43;;;13.27;;
1725;SDS011;41776;48.260;8.928;2024-02-28T02:26:42;25.47;;;11.67;;
1725;SDS011;41776;48.260;8.928;2024-02-28T02:29:11;26.37;;;12.27;;
1725;SDS011;41776;48.260;8.928;2024-02-28T02:31:38;22.07;;;11.20;;
1725;SDS011;41776;48.260;8.928;2024-02-28T02:34:05;21.43;;;11.40;;
1725;SDS011;41776;48.260;8.928;2024-02-28T02:36:32;26.87;;;12.13;;
1725;SDS011;41776;48.260;8.928;2024-02-28T02:38:58;22.60;;;11.07;;
1725;SDS011;41776;48.260;8.928;2024-02-28T02:41:26;17.67;;;9.20;;
1725;SDS011;41776;48.260;8.928;2024-02-28T02:43:53;19.97;;;10.13;;
1725;SDS011;41776;48.260;8.928;2024-02-28T02:46:19;24.43;;;12.00;;
1725;SDS011;41776;48.260;8.928;2024-02-28T02:48:46;20.27;;;10.33;;
1725;SDS011;41776;48.260;8.928;2024-02-28T02:51:12;24.07;;;11.50;;
1725;SDS011;41776;48.260;8.928;2024-02-28T02:53:39;23.87;;;11.80;;
1725;SDS011;41776;48.260;8.928;2024-02-28T02:56:06;20.07;;;9.97;;
1725;SDS011;41776;48.260;8.928;2024-02-28T02:58:34;20.90;;;9.17;;
1725;SDS011;41776;48.260;8.928;2024-02-28T03:01:00;18.97;;;10.47;;
1725;SDS011;41776;48.260;8.928;2024-02-28T03:03:27;18.37;;;9.27;;
1725;SDS011;41776;48.260;8.928;2024-02-28T03:05:53;23.60;;;11.30;;
1725;SDS011;41776;48.260;8.928;2024-02-28T03:08:20;26.33;;;12.37;;
1725;SDS011;41776;48.260;8.928;2024-02-28T03:10:46;22.67;;;11.97;;
1725;SDS011;41776;48.260;8.928;2024-02-28T03:13:13;23.37;;;11.00;;
1725;SDS011;41776;48.260;8.928;2024-02-28T03:15:40;22.63;;;11.43;;
1725;SDS011;41776;48.260;8.928;2024-02-28T03:18:07;24.70;;;11.87;;
1725;SDS011;41776;48.260;8.928;2024-02-28T03:20:33;24.73;;;11.60;;
1725;SDS011;41776;48.260;8.928;2024-02-28T03:23:03;20.80;;;10.90;;
1725;SDS011;41776;48.260;8.928;2024-02-28T03:25:30;27.80;;;12.63;;
1725;SDS011;41776;48.260;8.928;2024-02-28T03:27:57;23.83;;;12.03;;
1725;SDS011;41776;48.260;8.928;2024-02-28T03:30:24;29.40;;;12.63;;
1725;SDS011;41776;48.260;8.928;2024-02-28T03:32:52;27.00;;;12.50;;
1725;SDS011;41776;48.260;8.928;2024-02-28T03:35:19;29.17;;;12.20;;
1725;SDS011;41776;48.260;8.928;2024-02-28T03:37:45;28.27;;;12.73;;
1725;SDS011;41776;48.260;8.928;2024-02-28T03:40:12;27.43;;;13.27;;
1725;SDS011;41776;48.260;8.928;2024-02-28T03:42:39;27.07;;;12.27;;
1725;SDS011;41776;48.260;8.928;2024-02-28T03:45:06;29.23;;;12.83;;
1725;SDS011;41776;48.260;8.928;2024-02-28T03:47:33;24.77;;;12.97;;
1725;SDS011;41776;48.260;8.928;2024-02-28T03:50:00;26.83;;;12.53;;
1725;SDS011;41776;48.260;8.928;2024-02-28T03:52:28;26.03;;;12.73;;
1725;SDS011;41776;48.260;8.928;2024-02-28T03:54:56;26.60;;;12.83;;
1725;SDS011;41776;48.260;8.928;2024-02-28T03:57:23;28.63;;;13.33;;
1725;SDS011;41776;48.260;8.928;2024-02-28T03:59:50;31.70;;;15.13;;
1725;SDS011;41776;48.260;8.928;2024-02-28T04:02:16;34.13;;;14.53;;
1725;SDS011;41776;48.260;8.928;2024-02-28T04:04:43;31.40;;;16.53;;
1725;SDS011;41776;48.260;8.928;2024-02-28T04:07:10;36.60;;;15.93;;
1725;SDS011;41776;48.260;8.928;2024-02-28T04:09:37;33.63;;;16.00;;
1725;SDS011;41776;48.260;8.928;2024-02-28T04:12:03;34.97;;;15.20;;
1725;SDS011;41776;48.260;8.928;2024-02-28T04:14:30;35.30;;;15.87;;
1725;SDS011;41776;48.260;8.928;2024-02-28T04:16:56;36.80;;;16.80;;
1725;SDS011;41776;48.260;8.928;2024-02-28T04:19:23;38.17;;;16.33;;
1725;SDS011;41776;48.260;8.928;2024-02-28T04:21:49;36.87;;;16.63;;
1725;SDS011;41776;48.260;8.928;2024-02-28T04:24:17;37.00;;;17.80;;
1725;SDS011;41776;48.260;8.928;2024-02-28T04:26:44;37.80;;;16.87;;
1725;SDS011;41776;48.260;8.928;2024-02-28T04:29:10;40.83;;;17.80;;
1725;SDS011;41776;48.260;8.928;2024-02-28T04:31:38;38.23;;;17.00;;
1725;SDS011;41776;48.260;8.928;2024-02-28T04:34:05;34.57;;;17.47;;
1725;SDS011;41776;48.260;8.928;2024-02-28T04:36:31;38.00;;;16.03;;
1725;SDS011;41776;48.260;8.928;2024-02-28T04:38:58;38.20;;;17.83;;
1725;SDS011;41776;48.260;8.928;2024-02-28T04:41:27;34.60;;;14.70;;
1725;SDS011;41776;48.260;8.928;2024-02-28T04:43:53;32.47;;;15.40;;
1725;SDS011;41776;48.260;8.928;2024-02-28T04:46:20;46.17;;;17.43;;
1725;SDS011;41776;48.260;8.928;2024-02-28T04:48:52;32.90;;;15.83;;
1725;SDS011;41776;48.260;8.928;2024-02-28T04:51:19;36.17;;;16.43;;
1725;SDS011;41776;48.260;8.928;2024-02-28T04:53:45;34.90;;;15.80;;
1725;SDS011;41776;48.260;8.928;2024-02-28T04:56:11;28.53;;;14.87;;
1725;SDS011;41776;48.260;8.928;2024-02-28T04:58:39;35.00;;;16.27;;
1725;SDS011;41776;48.260;8.928;2024-02-28T05:01:06;31.80;;;15.43;;
1725;SDS011;41776;48.260;8.928;2024-02-28T05:03:32;36.07;;;15.20;;
1725;SDS011;41776;48.260;8.928;2024-02-28T05:05:59;33.17;;;14.33;;
1725;SDS011;41776;48.260;8.928;2024-02-28T05:08:25;31.83;;;14.97;;
1725;SDS011;41776;48.260;8.928;2024-02-28T05:10:53;32.43;;;15.73;;
1725;SDS011;41776;48.260;8.928;2024-02-28T05:13:20;34.30;;;15.27;;
1725;SDS011;41776;48.260;8.928;2024-02-28T05:15:48;35.20;;;16.50;;
1725;SDS011;41776;48.260;8.928;2024-02-28T05:18:15;36.60;;;15.93;;
1725;SDS011;41776;48.260;8.928;2024-02-28T05:20:42;35.03;;;15.67;;
1725;SDS011;41776;48.260;8.928;2024-02-28T05:23:08;32.50;;;15.67;;
1725;SDS011;41776;48.260;8.928;2024-02-28T05:25:35;33.73;;;15.63;;
1725;SDS011;41776;48.260;8.928;2024-02-28T05:28:01;35.33;;;16.77;;
1725;SDS011;41776;48.260;8.928;2024-02-28T05:30:28;30.20;;;14.30;;
1725;SDS011;41776;48.260;8.928;2024-02-28T05:32:56;33.00;;;15.33;;
1725;SDS011;41776;48.260;8.928;2024-02-28T05:35:22;38.07;;;16.90;;
1725;SDS011;41776;48.260;8.928;2024-02-28T05:37:52;34.10;;;16.27;;
1725;SDS011;41776;48.260;8.928;2024-02-28T05:40:19;38.40;;;20.33;;
1725;SDS011;41776;48.260;8.928;2024-02-28T05:42:45;38.17;;;18.27;;
1725;SDS011;41776;48.260;8.928;2024-02-28T05:45:11;39.70;;;18.07;;
1725;SDS011;41776;48.260;8.928;2024-02-28T05:47:38;38.47;;;17.23;;
1725;SDS011;41776;48.260;8.928;2024-02-28T05:50:06;37.13;;;17.93;;
1725;SDS011;41776;48.260;8.928;2024-02-28T05:52:35;39.03;;;17.17;;
1725;SDS011;41776;48.260;8.928;2024-02-28T05:55:01;37.73;;;17.03;;
1725;SDS011;41776;48.260;8.928;2024-02-28T05:57:28;35.50;;;16.30;;
1725;SDS011;41776;48.260;8.928;2024-02-28T05:59:54;38.67;;;17.00;;
1725;SDS011;41776;48.260;8.928;2024-02-28T06:02:20;39.43;;;17.33;;
1725;SDS011;41776;48.260;8.928;2024-02-28T06:04:47;35.53;;;16.67;;
1725;SDS011;41776;48.260;8.928;2024-02-28T06:07:14;33.90;;;15.40;;
1725;SDS011;41776;48.260;8.928;2024-02-28T06:09:41;34.33;;;15.83;;
1725;SDS011;41776;48.260;8.928;2024-02-28T06:12:07;41.57;;;15.70;;
1725;SDS011;41776;48.260;8.928;2024-02-28T06:14:34;35.07;;;16.07;;
1725;SDS011;41776;48.260;8.928;2024-02-28T06:17:00;34.87;;;16.93;;
1725;SDS011;41776;48.260;8.928;2024-02-28T06:19:27;43.97;;;15.70;;
1725;SDS011;41776;48.260;8.928;2024-02-28T06:21:53;31.63;;;14.60;;
1725;SDS011;41776;48.260;8.928;2024-02-28T06:24:21;35.17;;;15.67;;
1725;SDS011;41776;48.260;8.928;2024-02-28T06:26:48;28.20;;;15.03;;
1725;SDS011;41776;48.260;8.928;2024-02-28T06:29:14;33.80;;;15.33;;
1725;SDS011;41776;48.260;8.928;2024-02-28T06:31:41;36.37;;;14.90;;
1725;SDS011;41776;48.260;8.928;2024-02-28T06:34:07;29.87;;;14.93;;
1725;SDS011;41776;48.260;8.928;2024-02-28T06:36:34;33.87;;;14.57;;
1725;SDS011;41776;48.260;8.928;2024-02-28T06:39:00;33.33;;;15.13;;
1725;SDS011;41776;48.260;8.928;2024-02-28T06:41:28;35.47;;;14.67;;
1725;SDS011;41776;48.260;8.928;2024-02-28T06:43:54;36.97;;;15.43;;
1725;SDS011;41776;48.260;8.928;2024-02-28T06:46:21;34.27;;;15.63;;
1725;SDS011;41776;48.260;8.928;2024-02-28T06:48:47;33.90;;;15.30;;
1725;SDS011;41776;48.260;8.928;2024-02-28T06:51:15;33.60;;;15.17;;
1725;SDS011;41776;48.260;8.928;2024-02-28T06:53:42;35.77;;;15.83;;
1725;SDS011;41776;48.260;8.928;2024-02-28T06:56:08;34.50;;;15.57;;
1725;SDS011;41776;48.260;8.928;2024-02-28T06:58:36;38.40;;;16.53;;
1725;SDS011;41776;48.260;8.928;2024-02-28T07:01:03;38.83;;;16.43;;
1725;SDS011;41776;48.260;8.928;2024-02-28T07:03:29;34.73;;;16.40;;
1725;SDS011;41776;48.260;8.928;2024-02-28T07:05:56;33.50;;;15.63;;
1725;SDS011;41776;48.260;8.928;2024-02-28T07:08:22;32.77;;;15.47;;
1725;SDS011;41776;48.260;8.928;2024-02-28T07:10:49;34.80;;;15.80;;
1725;SDS011;41776;48.260;8.928;2024-02-28T07:13:18;33.80;;;15.33;;
1725;SDS011;41776;48.260;8.928;2024-02-28T07:15:46;39.70;;;17.57;;
1725;SDS011;41776;48.260;8.928;2024-02-28T07:18:13;40.67;;;17.50;;
1725;SDS011;41776;48.260;8.928;2024-02-28T07:20:40;34.60;;;16.10;;
1725;SDS011;41776;48.260;8.928;2024-02-28T07:23:06;35.03;;;15.57;;
1725;SDS011;41776;48.260;8.928;2024-02-28T07:25:33;33.53;;;15.37;;
1725;SDS011;41776;48.260;8.928;2024-02-28T07:27:59;38.43;;;16.27;;
1725;SDS011;41776;48.260;8.928;2024-02-28T07:30:26;38.13;;;15.50;;
1725;SDS011;41776;48.260;8.928;2024-02-28T07:32:54;35.73;;;16.17;;
1725;SDS011;41776;48.260;8.928;2024-02-28T07:35:21;34.07;;;15.03;;
1725;SDS011;41776;48.260;8.928;2024-02-28T07:37:49;32.20;;;15.57;;
1725;SDS011;41776;48.260;8.928;2024-02-28T07:40:15;36.23;;;16.37;;
1725;SDS011;41776;48.260;8.928;2024-02-28T07:42:42;37.17;;;15.20;;
1725;SDS011;41776;48.260;8.928;2024-02-28T07:45:08;37.80;;;16.93;;
1725;SDS011;41776;48.260;8.928;2024-02-28T07:47:35;38.43;;;16.57;;
1725;SDS011;41776;48.260;8.928;2024-02-28T07:50:03;31.13;;;15.27;;
1725;SDS011;41776;48.260;8.928;2024-02-28T07:52:30;35.03;;;16.00;;
1725;SDS011;41776;48.260;8.928;2024-02-28T07:55:00;36.33;;;14.93;;
1725;SDS011;41776;48.260;8.928;2024-02-28T07:57:27;40.73;;;16.30;;
1725;SDS011;41776;48.260;8.928;2024-02-28T07:59:53;34.00;;;15.33;;
1725;SDS011;41776;48.260;8.928;2024-02-28T08:02:20;34.50;;;15.43;;
1725;SDS011;41776;48.260;8.928;2024-02-28T08:04:46;35.15;;;17.83;;
1725;SDS011;41776;48.260;8.928;2024-02-28T08:07:14;35.13;;;15.87;;
1725;SDS011;41776;48.260;8.928;2024-02-28T08:09:41;37.97;;;15.40;;
1725;SDS011;41776;48.260;8.928;2024-02-28T08:12:07;33.17;;;14.80;;
1725;SDS011;41776;48.260;8.928;2024-02-28T08:14:34;34.73;;;15.20;;
1725;SDS011;41776;48.260;8.928;2024-02-28T08:17:02;34.60;;;14.80;;
1725;SDS011;41776;48.260;8.928;2024-02-28T08:19:29;35.80;;;14.60;;
1725;SDS011;41776;48.260;8.928;2024-02-28T08:21:56;37.10;;;16.43;;
1725;SDS011;41776;48.260;8.928;2024-02-28T08:24:23;33.00;;;15.40;;
1725;SDS011;41776;48.260;8.928;2024-02-28T08:26:50;34.93;;;15.70;;
1725;SDS011;41776;48.260;8.928;2024-02-28T08:29:19;39.40;;;15.60;;
1725;SDS011;41776;48.260;8.928;2024-02-28T08:31:46;31.97;;;15.47;;
1725;SDS011;41776;48.260;8.928;2024-02-28T08:34:11;34.27;;;15.03;;
1725;SDS011;41776;48.260;8.928;2024-02-28T08:36:38;31.90;;;15.50;;
1725;SDS011;41776;48.260;8.928;2024-02-28T08:39:04;32.50;;;15.27;;
1725;SDS011;41776;48.260;8.928;2024-02-28T08:41:35;33.70;;;14.93;;
1725;SDS011;41776;48.260;8.928;2024-02-28T08:44:02;30.57;;;14.00;;
1725;SDS011;41776;48.260;8.928;2024-02-28T08:46:28;33.80;;;14.93;;
1725;SDS011;41776;48.260;8.928;2024-02-28T08:48:55;34.87;;;14.63;;
1725;SDS011;41776;48.260;8.928;2024-02-28T08:51:21;34.87;;;14.53;;
1725;SDS011;41776;48.260;8.928;2024-02-28T08:53:48;31.03;;;14.67;;
1725;SDS011;41776;48.260;8.928;2024-02-28T08:56:14;32.73;;;15.03;;
1725;SDS011;41776;48.260;8.928;2024-02-28T08:58:42;31.87;;;14.93;;
1725;SDS011;41776;48.260;8.928;2024-02-28T09:01:12;35.40;;;16.23;;
1725;SDS011;41776;48.260;8.928;2024-02-28T09:03:40;31.63;;;14.70;;
1725;SDS011;41776;48.260;8.928;2024-02-28T09:06:06;32.17;;;14.93;;
1725;SDS011;41776;48.260;8.928;2024-02-28T09:08:33;34.70;;;15.33;;
1725;SDS011;41776;48.260;8.928;2024-02-28T09:11:02;30.53;;;15.53;;
1725;SDS011;41776;48.260;8.928;2024-02-28T09:13:30;33.47;;;15.57;;
1725;SDS011;41776;48.260;8.928;2024-02-28T09:15:58;36.53;;;16.20;;
1725;SDS011;41776;48.260;8.928;2024-02-28T09:18:24;31.83;;;15.33;;
1725;SDS011;41776;48.260;8.928;2024-02-28T09:20:50;32.67;;;15.53;;
1725;SDS011;41776;48.260;8.928;2024-02-28T09:23:17;34.47;;;16.03;;
1725;SDS011;41776;48.260;8.928;2024-02-28T09:25:43;35.83;;;15.97;;
1725;SDS011;41776;48.260;8.928;2024-02-28T09:28:10;38.10;;;16.07;;
1725;SDS011;41776;48.260;8.928;2024-02-28T09:30:38;32.43;;;15.43;;
1725;SDS011;41776;48.260;8.928;2024-02-28T09:33:07;34.43;;;16.23;;
1725;SDS011;41776;48.260;8.928;2024-02-28T09:35:34;32.37;;;14.80;;
1725;SDS011;41776;48.260;8.928;2024-02-28T09:38:01;32.10;;;15.43;;
1725;SDS011;41776;48.260;8.928;2024-02-28T09:40:27;35.70;;;14.93;;
1725;SDS011;41776;48.260;8.928;2024-02-28T09:42:56;33.20;;;14.53;;
1725;SDS011;41776;48.260;8.928;2024-02-28T09:45:26;33.23;;;15.20;;
1725;SDS011;41776;48.260;8.928;2024-02-28T09:47:55;31.37;;;15.07;;
1725;SDS011;41776;48.260;8.928;2024-02-28T09:50:23;28.20;;;14.17;;
1725;SDS011;41776;48.260;8.928;2024-02-28T09:52:54;31.27;;;14.63;;
1725;SDS011;41776;48.260;8.928;2024-02-28T09:55:21;30.73;;;14.13;;
1725;SDS011;41776;48.260;8.928;2024-02-28T09:57:48;28.80;;;14.77;;
1725;SDS011;41776;48.260;8.928;2024-02-28T10:00:17;30.57;;;14.07;;
1725;SDS011;41776;48.260;8.928;2024-02-28T10:02:45;31.17;;;13.90;;
1725;SDS011;41776;48.260;8.928;2024-02-28T10:05:14;31.57;;;14.57;;
1725;SDS011;41776;48.260;8.928;2024-02-28T10:07:42;29.60;;;13.90;;
1725;SDS011;41776;48.260;8.928;2024-02-28T10:10:11;29.93;;;14.07;;
1725;SDS011;41776;48.260;8.928;2024-02-28T10:12:40;31.70;;;14.73;;
1725;SDS011;41776;48.260;8.928;2024-02-28T10:15:07;33.57;;;15.03;;
1725;SDS011;41776;48.260;8.928;2024-02-28T10:17:35;31.87;;;15.47;;
1725;SDS011;41776;48.260;8.928;2024-02-28T10:20:02;33.03;;;14.80;;
1725;SDS011;41776;48.260;8.928;2024-02-28T10:22:33;29.20;;;14.53;;
1725;SDS011;41776;48.260;8.928;2024-02-28T10:25:01;31.07;;;14.33;;
1725;SDS011;41776;48.260;8.928;2024-02-28T10:27:28;31.57;;;14.67;;
1725;SDS011;41776;48.260;8.928;2024-02-28T10:29:58;33.85;;;17.25;;
1725;SDS011;41776;48.260;8.928;2024-02-28T10:32:24;30.77;;;15.33;;
1725;SDS011;41776;48.260;8.928;2024-02-28T10:34:51;28.70;;;13.53;;
1725;SDS011;41776;48.260;8.928;2024-02-28T10:37:19;28.23;;;13.70;;
1725;SDS011;41776;48.260;8.928;2024-02-28T10:39:47;26.67;;;13.53;;
1725;SDS011;41776;48.260;8.928;2024-02-28T10:42:18;28.13;;;12.87;;
1725;SDS011;41776;48.260;8.928;2024-02-28T10:44:49;25.13;;;12.43;;
1725;SDS011;41776;48.260;8.928;2024-02-28T10:47:17;23.52;;;12.25;;
1725;SDS011;41776;48.260;8.928;2024-02-28T10:49:47;24.83;;;12.82;;
1725;SDS011;41776;48.260;8.928;2024-02-28T10:52:16;24.88;;;12.57;;
1725;SDS011;41776;48.260;8.928;2024-02-28T10:54:48;25.27;;;12.05;;
1725;SDS011;41776;48.260;8.928;2024-02-28T10:57:21;26.17;;;12.90;;
1725;SDS011;41776;48.260;8.928;2024-02-28T10:59:50;25.30;;;12.05;;
1725;SDS011;41776;48.260;8.928;2024-02-28T11:02:17;23.92;;;11.93;;
1725;SDS011;41776;48.260;8.928;2024-02-28T11:04:44;25.88;;;11.98;;
1725;SDS011;41776;48.260;8.928;2024-02-28T11:07:10;22.58;;;12.00;;
1725;SDS011;41776;48.260;8.928;2024-02-28T11:09:40;24.50;;;12.23;;
1725;SDS011;41776;48.260;8.928;2024-02-28T11:12:07;26.98;;;12.55;;
1725;SDS011;41776;48.260;8.928;2024-02-28T11:14:56;28.17;;;12.80;;
1725;SDS011;41776;48.260;8.928;2024-02-28T11:17:25;25.90;;;12.73;;
1725;SDS011;41776;48.260;8.928;2024-02-28T11:19:52;26.48;;;13.18;;
1725;SDS011;41776;48.260;8.928;2024-02-28T11:22:19;27.85;;;12.48;;
1725;SDS011;41776;48.260;8.928;2024-02-28T11:24:47;25.70;;;13.30;;
1725;SDS011;41776;48.260;8.928;2024-02-28T11:27:13;27.90;;;12.32;;
1725;SDS011;41776;48.260;8.928;2024-02-28T11:29:41;26.55;;;12.88;;
1725;SDS011;41776;48.260;8.928;2024-02-28T11:32:10;26.48;;;12.77;;
1725;SDS011;41776;48.260;8.928;2024-02-28T11:34:37;25.27;;;11.50;;
1725;SDS011;41776;48.260;8.928;2024-02-28T11:37:05;28.35;;;12.95;;
1725;SDS011;41776;48.260;8.928;2024-02-28T11:39:32;23.45;;;12.20;;
1725;SDS011;41776;48.260;8.928;2024-02-28T11:42:08;23.40;;;11.65;;
1725;SDS011;41776;48.260;8.928;2024-02-28T11:44:35;20.20;;;11.05;;
1725;SDS011;41776;48.260;8.928;2024-02-28T11:47:03;28.25;;;12.70;;
1725;SDS011;41776;48.260;8.928;2024-02-28T11:49:32;23.60;;;12.57;;
1725;SDS011;41776;48.260;8.928;2024-02-28T11:51:58;23.77;;;12.15;;
1725;SDS011;41776;48.260;8.928;2024-02-28T11:54:25;27.90;;;11.43;;
1725;SDS011;41776;48.260;8.928;2024-02-28T11:56:51;26.25;;;12.23;;
1725;SDS011;41776;48.260;8.928;2024-02-28T11:59:18;22.13;;;11.50;;
1725;SDS011;41776;48.260;8.928;2024-02-28T12:01:45;23.77;;;11.25;;
1725;SDS011;41776;48.260;8.928;2024-02-28T12:04:13;21.77;;;11.80;;
1725;SDS011;41776;48.260;8.928;2024-02-28T12:06:40;24.55;;;11.73;;
1725;SDS011;41776;48.260;8.928;2024-02-28T12:09:07;22.33;;;11.15;;
1725;SDS011;41776;48.260;8.928;2024-02-28T12:11:35;25.65;;;12.75;;
1725;SDS011;41776;48.260;8.928;2024-02-28T12:14:02;26.05;;;12.13;;
1725;SDS011;41776;48.260;8.928;2024-02-28T12:16:30;25.42;;;12.15;;
1725;SDS011;41776;48.260;8.928;2024-02-28T12:18:56;21.42;;;12.10;;
1725;SDS011;41776;48.260;8.928;2024-02-28T12:21:24;23.80;;;12.23;;
1725;SDS011;41776;48.260;8.928;2024-02-28T12:23:51;28.08;;;12.50;;
1725;SDS011;41776;48.260;8.928;2024-02-28T12:26:19;25.10;;;12.27;;
1725;SDS011;41776;48.260;8.928;2024-02-28T12:28:46;24.08;;;12.70;;
1725;SDS011;41776;48.260;8.928;2024-02-28T12:31:15;28.10;;;12.10;;
1725;SDS011;41776;48.260;8.928;2024-02-28T12:33:43;23.17;;;11.57;;
1725;SDS011;41776;48.260;8.928;2024-02-28T12:36:09;22.87;;;11.90;;
1725;SDS011;41776;48.260;8.928;2024-02-28T12:38:38;24.58;;;11.52;;
1725;SDS011;41776;48.260;8.928;2024-02-28T12:41:06;28.13;;;11.57;;
1725;SDS011;41776;48.260;8.928;2024-02-28T12:43:32;23.27;;;12.10;;
1725;SDS011;41776;48.260;8.928;2024-02-28T12:45:59;26.52;;;12.55;;
1725;SDS011;41776;48.260;8.928;2024-02-28T12:48:26;27.95;;;12.10;;
1725;SDS011;41776;48.260;8.928;2024-02-28T12:50:53;26.30;;;12.32;;
1725;SDS011;41776;48.260;8.928;2024-02-28T12:53:19;24.25;;;11.45;;
1725;SDS011;41776;48.260;8.928;2024-02-28T12:55:47;27.67;;;12.80;;
1725;SDS011;41776;48.260;8.928;2024-02-28T12:58:14;24.55;;;12.15;;
1725;SDS011;41776;48.260;8.928;2024-02-28T13:00:40;25.80;;;12.57;;
1725;SDS011;41776;48.260;8.928;2024-02-28T13:03:07;23.15;;;11.45;;
1725;SDS011;41776;48.260;8.928;2024-02-28T13:05:33;22.33;;;10.50;;
1725;SDS011;41776;48.260;8.928;2024-02-28T13:08:00;24.00;;;11.95;;
1725;SDS011;41776;48.260;8.928;2024-02-28T13:10:26;24.35;;;11.57;;
1725;SDS011;41776;48.260;8.928;2024-02-28T13:12:54;26.10;;;11.80;;
1725;SDS011;41776;48.260;8.928;2024-02-28T13:15:21;23.27;;;12.15;;
1725;SDS011;41776;48.260;8.928;2024-02-28T13:17:47;27.90;;;12.57;;
1725;SDS011;41776;48.260;8.928;2024-02-28T13:20:14;25.48;;;13.07;;
1725;SDS011;41776;48.260;8.928;2024-02-28T13:22:41;26.30;;;11.85;;
1725;SDS011;41776;48.260;8.928;2024-02-28T13:25:08;24.73;;;12.52;;
1725;SDS011;41776;48.260;8.928;2024-02-28T13:27:35;23.60;;;11.73;;
1725;SDS011;41776;48.260;8.928;2024-02-28T13:30:04;26.63;;;12.60;;
1725;SDS011;41776;48.260;8.928;2024-02-28T13:32:32;27.60;;;12.40;;
1725;SDS011;41776;48.260;8.928;2024-02-28T13:34:58;24.48;;;11.57;;
1725;SDS011;41776;48.260;8.928;2024-02-28T13:37:27;25.55;;;12.18;;
1725;SDS011;41776;48.260;8.928;2024-02-28T13:39:54;22.77;;;11.35;;
1725;SDS011;41776;48.260;8.928;2024-02-28T13:42:23;26.92;;;11.70;;
1725;SDS011;41776;48.260;8.928;2024-02-28T13:44:50;27.45;;;12.65;;
1725;SDS011;41776;48.260;8.928;2024-02-28T13:47:22;25.90;;;12.73;;
1725;SDS011;41776;48.260;8.928;2024-02-28T13:49:49;24.85;;;12.40;;
1725;SDS011;41776;48.260;8.928;2024-02-28T13:52:16;22.17;;;11.25;;
1725;SDS011;41776;48.260;8.928;2024-02-28T13:54:44;26.02;;;13.52;;
1725;SDS011;41776;48.260;8.928;2024-02-28T13:57:12;23.38;;;12.23;;
1725;SDS011;41776;48.260;8.928;2024-02-28T13:59:39;23.88;;;11.95;;
1725;SDS011;41776;48.260;8.928;2024-02-28T14:02:14;21.03;;;11.47;;
1725;SDS011;41776;48.260;8.928;2024-02-28T14:04:42;24.07;;;12.70;;
1725;SDS011;41776;48.260;8.928;2024-02-28T14:07:08;23.20;;;11.70;;
1725;SDS011;41776;48.260;8.928;2024-02-28T14:09:35;24.00;;;11.63;;
1725;SDS011;41776;48.260;8.928;2024-02-28T14:12:01;21.38;;;11.38;;
1725;SDS011;41776;48.260;8.928;2024-02-28T14:14:28;24.98;;;11.70;;
1725;SDS011;41776;48.260;8.928;2024-02-28T14:16:54;26.27;;;12.23;;
1725;SDS011;41776;48.260;8.928;2024-02-28T14:19:21;23.63;;;11.50;;
1725;SDS011;41776;48.260;8.928;2024-02-28T14:21:49;21.63;;;11.30;;
1725;SDS011;41776;48.260;8.928;2024-02-28T14:24:15;22.90;;;11.52;;
1725;SDS011;41776;48.260;8.928;2024-02-28T14:26:45;22.58;;;11.43;;
1725;SDS011;41776;48.260;8.928;2024-02-28T14:29:11;22.70;;;11.17;;
1725;SDS011;41776;48.260;8.928;2024-02-28T14:31:38;20.08;;;10.40;;
1725;SDS011;41776;48.260;8.928;2024-02-28T14:34:04;22.15;;;11.25;;
1725;SDS011;41776;48.260;8.928;2024-02-28T14:36:31;23.23;;;10.77;;